Time;durP1;ratioP1;P1;durP2;ratioP2;P2;SDS_P1;SDS_P2;PMS_P1;PMS_P2;Temp;Humidity;BMP_temperature;BMP_pressure;BME280_temperature;BME280_humidity;BME280_pressure;Samples;Min_cycle;Max_cycle;Signal;HPM_P1;HPM_P2
2022/12/16 00:02:14;;;;;;;50.07;28.00;;;-1.00;1.00;;;;;;5046755;28;20600;-41
2022/12/16 00:04:40;;;;;;;51.57;27.93;;;-1.00;1.00;;;;;;5049394;28;20842;-41
2022/12/16 00:07:05;;;;;;;51.63;28.17;;;-1.00;99.90;;;;;;5046498;28;20212;-41
2022/12/16 00:09:31;;;;;;;52.17;27.77;;;-1.00;99.90;;;;;;5049551;28;20182;-41
2022/12/16 00:11:56;;;;;;;53.73;27.40;;;-1.00;99.90;;;;;;5043868;28;20214;-41
2022/12/16 00:14:22;;;;;;;50.67;25.60;;;-1.00;99.90;;;;;;5049837;28;20170;-42
2022/12/16 00:16:48;;;;;;;55.40;28.93;;;-1.00;99.90;;;;;;5047268;28;20218;-42
2022/12/16 00:19:13;;;;;;;44.90;26.73;;;-1.00;99.90;;;;;;5048310;28;20751;-42
2022/12/16 00:21:39;;;;;;;48.67;27.00;;;-1.00;41.70;;;;;;5046221;28;20265;-42
2022/12/16 00:24:04;;;;;;;50.63;28.93;;;-0.90;39.50;;;;;;5030513;28;20202;-42
2022/12/16 00:26:30;;;;;;;50.27;26.97;;;-0.90;1.00;;;;;;5029642;28;20290;-42
2022/12/16 00:28:56;;;;;;;51.97;27.60;;;-0.90;1.00;;;;;;5046321;28;20275;-42
2022/12/16 00:31:22;;;;;;;51.20;28.67;;;-0.90;1.00;;;;;;5037279;28;20736;-42
2022/12/16 00:33:48;;;;;;;48.70;25.40;;;-0.90;1.00;;;;;;5047467;28;20510;-42
2022/12/16 00:36:14;;;;;;;43.57;25.60;;;-0.90;99.90;;;;;;5029907;28;20464;-41
2022/12/16 00:38:39;;;;;;;47.90;28.60;;;-0.90;99.90;;;;;;5049686;28;20189;-41
2022/12/16 00:41:05;;;;;;;49.67;27.50;;;-0.90;99.90;;;;;;5049041;28;20190;-41
2022/12/16 00:43:31;;;;;;;52.20;27.93;;;-1.00;99.90;;;;;;5047917;28;20186;-41
2022/12/16 00:45:56;;;;;;;54.00;26.23;;;-1.00;99.90;;;;;;5044749;28;20278;-42
2022/12/16 00:48:22;;;;;;;51.97;28.70;;;-0.90;99.90;;;;;;5035357;28;20228;-42
2022/12/16 00:50:54;;;;;;;49.70;27.57;;;-0.90;99.90;;;;;;5036287;28;20194;-42
2022/12/16 00:53:21;;;;;;;56.27;28.63;;;-0.90;99.90;;;;;;5036416;28;20556;-42
2022/12/16 00:55:46;;;;;;;58.03;28.70;;;-0.90;91.30;;;;;;5037820;28;20421;-41
2022/12/16 00:58:13;;;;;;;54.30;28.80;;;-1.00;66.40;;;;;;5033201;28;20443;-41
2022/12/16 01:00:39;;;;;;;58.37;28.10;;;-1.00;63.20;;;;;;5053533;28;20269;-41
2022/12/16 01:03:05;;;;;;;51.87;27.87;;;-1.00;43.00;;;;;;5053602;28;20455;-42
2022/12/16 01:05:30;;;;;;;51.03;27.93;;;-0.90;1.00;;;;;;5053622;28;20443;-40
2022/12/16 01:07:56;;;;;;;51.80;27.90;;;-0.90;1.00;;;;;;5053540;28;20209;-41
2022/12/16 01:10:24;;;;;;;51.30;27.90;;;-0.90;1.00;;;;;;5053545;28;20182;-41
2022/12/16 01:12:50;;;;;;;50.67;27.87;;;-0.90;1.00;;;;;;5053470;28;20187;-41
2022/12/16 01:15:17;;;;;;;49.07;27.50;;;-0.90;1.00;;;;;;5038888;28;20418;-42
2022/12/16 01:17:43;;;;;;;51.10;28.43;;;-0.90;1.00;;;;;;5053334;28;20190;-41
2022/12/16 01:20:09;;;;;;;46.73;26.97;;;-0.80;1.00;;;;;;5049023;28;20440;-41
2022/12/16 01:22:35;;;;;;;50.23;28.03;;;-0.80;1.00;;;;;;5053319;28;20413;-41
2022/12/16 01:25:01;;;;;;;51.00;28.40;;;-0.90;1.00;;;;;;5052876;28;20993;-41
2022/12/16 01:27:28;;;;;;;51.57;28.03;;;-0.90;1.00;;;;;;5053158;28;20457;-42
2022/12/16 01:29:54;;;;;;;57.10;28.20;;;-0.90;1.00;;;;;;5053148;28;20534;-40
2022/12/16 01:32:19;;;;;;;53.53;26.93;;;-0.90;1.00;;;;;;5051695;28;20432;-42
2022/12/16 01:34:52;;;;;;;54.67;28.87;;;-0.90;1.00;;;;;;5053118;28;20417;-41
2022/12/16 01:37:18;;;;;;;57.50;28.40;;;-0.90;1.00;;;;;;5053012;28;20166;-41
2022/12/16 01:39:43;;;;;;;53.50;28.07;;;-0.90;1.00;;;;;;5068221;28;20424;-41
2022/12/16 01:42:15;;;;;;;52.87;27.77;;;-0.90;1.00;;;;;;5052890;28;20186;-41
2022/12/16 01:44:43;;;;;;;45.90;26.60;;;-0.90;1.00;;;;;;5052850;28;20208;-41
2022/12/16 01:47:14;;;;;;;51.80;28.30;;;-0.90;1.00;;;;;;5051865;28;20419;-42
2022/12/16 01:49:59;;;;;;;50.20;27.93;;;-1.00;1.00;;;;;;5037407;28;20426;-42
2022/12/16 01:52:33;;;;;;;52.00;27.70;;;-1.00;1.00;;;;;;5032811;28;20405;-41
2022/12/16 01:55:08;;;;;;;49.30;26.37;;;-1.00;1.00;;;;;;5047487;28;20778;-41
2022/12/16 01:57:41;;;;;;;49.57;27.37;;;-1.00;1.00;;;;;;5052778;28;20900;-41
2022/12/16 02:00:09;;;;;;;51.50;26.97;;;-1.00;1.00;;;;;;5051769;28;20452;-41
2022/12/16 02:02:36;;;;;;;50.90;26.90;;;-1.10;1.00;;;;;;5050939;28;21025;-41
2022/12/16 02:05:20;;;;;;;50.07;26.03;;;-1.10;1.00;;;;;;5051216;28;20447;-40
2022/12/16 02:08:14;;;;;;;46.37;25.50;;;-1.00;1.00;;;;;;5023620;28;20472;-41
2022/12/16 02:10:42;;;;;;;50.53;24.63;;;-1.20;99.90;;;;;;5031850;28;20426;-40
2022/12/16 02:13:25;;;;;;;55.33;26.27;;;-1.30;99.90;;;;;;5044542;28;20467;-41
2022/12/16 02:16:15;;;;;;;49.87;26.47;;;-1.30;99.90;;;;;;5033543;28;20961;-41
2022/12/16 02:18:49;;;;;;;49.97;26.07;;;-1.50;99.90;;;;;;5049422;28;20440;-41
2022/12/16 02:21:21;;;;;;;47.43;26.23;;;-1.50;1.00;;;;;;5048804;28;21095;-42
2022/12/16 02:24:19;;;;;;;46.17;26.00;;;-1.60;1.00;;;;;;5048574;28;20464;-41
2022/12/16 02:26:48;;;;;;;44.20;24.87;;;-1.60;1.00;;;;;;5052033;28;20433;-41
2022/12/16 02:29:38;;;;;;;47.93;26.60;;;-1.60;1.00;;;;;;5050832;28;21077;-41
2022/12/16 02:32:20;;;;;;;47.90;26.37;;;-1.70;1.00;;;;;;5048601;28;20839;-41
2022/12/16 02:34:54;;;;;;;52.17;26.10;;;-1.80;1.00;;;;;;5050830;28;20475;-41
2022/12/16 02:37:37;;;;;;;49.73;25.20;;;-1.80;1.00;;;;;;5050763;28;20436;-41
2022/12/16 02:40:21;;;;;;;51.20;26.30;;;-1.90;1.00;;;;;;5031069;28;20437;-40
2022/12/16 02:42:52;;;;;;;47.53;25.60;;;-1.90;1.00;;;;;;5051076;28;20759;-41
2022/12/16 02:45:28;;;;;;;52.03;25.70;;;-1.90;1.00;;;;;;5050935;28;20441;-41
2022/12/16 02:47:54;;;;;;;51.50;25.70;;;-1.90;1.00;;;;;;5050324;28;20475;-40
2022/12/16 02:50:48;;;;;;;48.50;25.30;;;-2.00;1.00;;;;;;5051268;28;20424;-40
2022/12/16 02:53:14;;;;;;;51.33;25.60;;;-2.10;1.00;;;;;;5049194;28;20805;-41
2022/12/16 02:55:43;;;;;;;47.67;25.37;;;-2.20;1.00;;;;;;5050594;28;20439;-40
2022/12/16 02:58:27;;;;;;;51.30;25.80;;;-2.20;1.00;;;;;;5049889;28;20194;-40
2022/12/16 03:01:20;;;;;;;52.50;25.57;;;-2.30;99.90;;;;;;5031464;28;20406;-40
2022/12/16 03:03:54;;;;;;;50.93;26.03;;;-2.30;99.90;;;;;;5027998;28;20448;-41
2022/12/16 03:06:22;;;;;;;47.00;24.73;;;-2.30;99.90;;;;;;5039405;28;20458;-40
2022/12/16 03:08:52;;;;;;;49.10;25.77;;;-2.40;1.00;;;;;;5038000;28;21004;-41
2022/12/16 03:11:19;;;;;;;41.73;22.97;;;-2.40;1.00;;;;;;5049684;28;20437;-40
2022/12/16 03:13:49;;;;;;;52.80;26.23;;;-2.50;1.00;;;;;;5048852;28;20803;-41
2022/12/16 03:16:19;;;;;;;50.47;27.30;;;-2.50;1.00;;;;;;5049490;28;20433;-40
2022/12/16 03:18:50;;;;;;;57.40;28.93;;;-2.50;1.00;;;;;;5049426;28;20440;-40
2022/12/16 03:21:17;;;;;;;54.30;28.10;;;-2.40;1.00;;;;;;5049980;28;20841;-40
2022/12/16 03:23:57;;;;;;;50.10;27.53;;;-2.50;1.00;;;;;;5050218;28;20987;-41
2022/12/16 03:27:04;;;;;;;55.10;26.87;;;-2.60;1.00;;;;;;5049841;28;20452;-40
2022/12/16 03:29:47;;;;;;;58.13;26.67;;;-2.60;1.00;;;;;;5048334;28;20567;-41
2022/12/16 03:32:22;;;;;;;52.80;26.37;;;-2.70;57.60;;;;;;5050154;28;20522;-41
2022/12/16 03:34:54;;;;;;;54.93;27.07;;;-2.70;99.90;;;;;;5050157;28;20439;-40
2022/12/16 03:37:23;;;;;;;61.40;27.23;;;-2.70;99.90;;;;;;5049504;28;20443;-40
2022/12/16 03:39:52;;;;;;;56.60;28.50;;;-2.80;1.00;;;;;;5030877;28;20497;-40
2022/12/16 03:42:17;;;;;;;53.77;27.57;;;-2.80;1.00;;;;;;5037303;28;20460;-40
2022/12/16 03:44:45;;;;;;;52.40;28.53;;;-2.80;1.00;;;;;;5050622;28;20507;-41
2022/12/16 03:47:11;;;;;;;55.70;29.50;;;-2.90;1.00;;;;;;5048878;28;20243;-40
2022/12/16 03:49:37;;;;;;;62.83;29.93;;;-2.90;1.00;;;;;;5050095;28;20510;-40
2022/12/16 03:52:04;;;;;;;58.17;29.60;;;-3.00;1.00;;;;;;5050126;28;20767;-39
2022/12/16 03:54:29;;;;;;;64.63;29.23;;;-3.00;96.20;;;;;;5049985;28;20846;-39
2022/12/16 03:56:55;;;;;;;63.33;29.37;;;-3.00;99.90;;;;;;5043601;28;20469;-40
2022/12/16 03:59:21;;;;;;;55.80;28.50;;;-3.00;1.00;;;;;;5032119;28;20190;-39
2022/12/16 04:01:48;;;;;;;65.20;29.87;;;-3.10;99.90;;;;;;5049382;28;20194;-40
2022/12/16 04:04:14;;;;;;;67.07;31.43;;;-3.10;1.00;;;;;;5049675;28;20424;-39
2022/12/16 04:06:40;;;;;;;58.70;28.63;;;-3.10;99.90;;;;;;5049859;28;20449;-39
2022/12/16 04:09:06;;;;;;;59.63;29.87;;;-3.20;1.00;;;;;;5050008;28;20527;-39
2022/12/16 04:25:32;;;;;;;62.27;29.67;;;-3.40;99.90;;;;;;5048551;28;20483;-40
2022/12/16 04:27:58;;;;;;;62.00;29.87;;;-3.40;99.90;;;;;;5049348;28;20515;-40
2022/12/16 04:30:26;;;;;;;57.23;28.40;;;-3.40;1.00;;;;;;5049754;28;20950;-40
